createdAt,value
2023-05-14T00:00:56.103Z,4981.00
2023-05-14T00:01:56.078Z,5043.00
2023-05-14T00:02:56.437Z,5118.00
2023-05-14T00:03:56.504Z,5164.00
2023-05-14T00:04:56.598Z,5259.00
2023-05-14T00:05:56.786Z,5353.00
2023-05-14T00:06:56.936Z,5431.00
2023-05-14T00:07:57.131Z,5393.00
2023-05-14T00:08:57.287Z,5363.00
2023-05-14T00:09:57.469Z,5369.00
2023-05-14T00:10:57.651Z,5468.00
2023-05-14T00:11:57.818Z,5395.00
2023-05-14T00:12:57.996Z,5331.00
2023-05-14T00:13:58.170Z,5352.00
2023-05-14T00:14:58.360Z,5373.00
2023-05-14T00:15:58.584Z,5341.00
2023-05-14T00:16:58.701Z,5316.00
2023-05-14T00:17:58.899Z,5339.00
2023-05-14T00:18:59.088Z,5320.00
2023-05-14T00:19:59.235Z,5212.00
2023-05-14T00:20:59.425Z,5187.00
2023-05-14T00:21:59.590Z,5250.00
2023-05-14T00:22:59.765Z,5284.00
2023-05-14T00:23:59.946Z,5266.00
2023-05-14T00:25:00.163Z,5130.00
2023-05-14T00:26:00.457Z,5077.00
2023-05-14T00:27:00.493Z,5097.00
2023-05-14T00:28:00.648Z,5159.00
2023-05-14T00:29:00.827Z,5177.00
2023-05-14T00:30:01.090Z,5156.00
2023-05-14T00:31:01.202Z,5212.00
2023-05-14T00:32:01.344Z,5296.00
2023-05-14T00:33:01.733Z,5257.00
2023-05-14T00:34:01.726Z,5181.00
2023-05-14T00:35:01.893Z,5146.00
2023-05-14T00:36:02.217Z,5127.00
2023-05-14T00:37:02.261Z,5154.00
2023-05-14T00:38:02.435Z,5163.00
2023-05-14T00:39:02.591Z,5264.00
2023-05-14T00:40:02.810Z,5293.00
2023-05-14T00:41:02.964Z,5312.00
2023-05-14T00:42:03.128Z,5490.00
2023-05-14T00:43:03.315Z,5591.00
2023-05-14T00:44:03.501Z,5620.00
2023-05-14T00:45:03.688Z,5625.00
2023-05-14T00:46:03.851Z,5578.00
2023-05-14T00:47:04.082Z,5593.00
2023-05-14T00:48:04.236Z,5548.00
2023-05-14T00:49:04.466Z,5535.00
2023-05-14T00:50:04.583Z,5481.00
2023-05-14T00:51:04.762Z,5456.00
2023-05-14T00:52:04.938Z,5347.00
2023-05-14T00:53:05.133Z,5294.00
2023-05-14T00:54:05.211Z,5278.00
2023-05-14T00:55:05.273Z,5267.00
2023-05-14T00:56:05.333Z,5174.00
2023-05-14T00:57:05.397Z,5104.00
2023-05-14T00:58:05.465Z,5103.00
2023-05-14T00:59:05.530Z,5082.00
2023-05-14T01:00:05.594Z,5064.00
2023-05-14T01:01:05.688Z,5024.00
2023-05-14T01:02:05.707Z,5046.00
2023-05-14T01:03:05.811Z,4952.00
2023-05-14T01:04:05.948Z,4991.00
2023-05-14T01:05:06.099Z,5084.00
2023-05-14T01:06:06.271Z,5180.00
2023-05-14T01:07:06.460Z,5186.00
2023-05-14T01:08:06.659Z,5126.00
2023-05-14T01:09:06.846Z,5154.00
2023-05-14T01:10:07.038Z,5203.00
2023-05-14T01:11:07.218Z,5232.00
2023-05-14T01:12:07.406Z,5308.00
2023-05-14T01:13:07.591Z,5380.00
2023-05-14T01:14:07.766Z,5464.00
2023-05-14T01:15:07.951Z,5484.00
2023-05-14T01:16:08.147Z,5463.00
2023-05-14T01:17:08.317Z,5513.00
2023-05-14T01:18:08.532Z,5563.00
2023-05-14T01:19:08.711Z,5568.00
2023-05-14T01:20:08.862Z,5596.00
2023-05-14T01:21:09.036Z,5635.00
2023-05-14T01:22:09.219Z,5681.00
2023-05-14T01:23:09.408Z,5712.00
2023-05-14T01:24:09.602Z,5718.00
2023-05-14T01:25:09.770Z,5734.00
2023-05-14T01:26:09.927Z,5685.00
2023-05-14T01:27:10.105Z,5639.00
2023-05-14T01:28:10.283Z,5661.00
2023-05-14T01:29:10.461Z,5625.00
2023-05-14T01:30:10.650Z,5530.00
2023-05-14T01:31:10.811Z,5465.00
2023-05-14T01:32:11.054Z,5417.00
2023-05-14T01:33:11.173Z,5449.00
2023-05-14T01:34:11.353Z,5534.00
2023-05-14T01:35:11.544Z,5607.00
2023-05-14T01:36:11.710Z,5527.00
2023-05-14T01:37:11.887Z,5494.00
2023-05-14T01:38:12.077Z,5447.00
2023-05-14T01:39:12.260Z,5463.00
2023-05-14T01:40:12.468Z,5457.00
2023-05-14T01:41:12.650Z,5473.00
2023-05-14T01:42:12.853Z,5538.00
2023-05-14T01:43:13.062Z,5508.00
2023-05-14T01:44:13.222Z,5447.00
2023-05-14T01:45:13.399Z,5389.00
2023-05-14T01:46:13.608Z,5378.00
2023-05-14T01:47:13.782Z,5321.00
2023-05-14T01:48:13.944Z,5376.00
2023-05-14T01:49:14.141Z,5318.00
2023-05-14T01:50:14.322Z,5288.00
2023-05-14T01:51:14.513Z,5339.00
2023-05-14T01:52:14.691Z,5319.00
2023-05-14T01:53:14.873Z,5350.00
2023-05-14T01:54:15.042Z,5374.00
2023-05-14T01:55:15.223Z,5383.00
2023-05-14T01:56:15.398Z,5389.00
2023-05-14T01:57:15.584Z,5323.00
2023-05-14T01:58:15.780Z,5305.00
2023-05-14T01:59:15.979Z,5145.00
2023-05-14T02:00:16.150Z,5080.00
2023-05-14T02:01:16.376Z,5154.00
2023-05-14T02:02:16.526Z,5202.00
2023-05-14T02:03:16.707Z,5212.00
2023-05-14T02:04:16.963Z,5182.00
2023-05-14T02:05:17.101Z,5247.00
2023-05-14T02:06:17.281Z,5291.00
2023-05-14T02:07:17.458Z,5359.00
2023-05-14T02:08:17.649Z,5406.00
2023-05-14T02:09:17.846Z,5433.00
2023-05-14T02:10:18.008Z,5423.00
2023-05-14T02:11:18.192Z,5424.00
2023-05-14T02:12:18.367Z,5416.00
2023-05-14T02:13:18.543Z,5396.00
2023-05-14T02:14:18.725Z,5391.00
2023-05-14T02:15:18.898Z,5338.00
2023-05-14T02:16:19.141Z,5260.00
2023-05-14T02:17:19.261Z,5231.00
2023-05-14T02:18:19.424Z,5209.00
2023-05-14T02:19:19.599Z,5228.00
2023-05-14T02:20:19.768Z,5264.00
2023-05-14T02:21:19.954Z,5237.00
2023-05-14T02:22:20.141Z,5247.00
2023-05-14T02:23:25.609Z,5261.00
2023-05-14T02:24:21.328Z,5236.00
2023-05-14T02:25:20.325Z,5190.00
2023-05-14T02:26:20.323Z,5204.00
2023-05-14T02:27:20.315Z,5193.00
2023-05-14T02:28:20.314Z,5221.00
2023-05-14T02:29:20.384Z,5231.00
2023-05-14T02:30:20.313Z,5232.00
2023-05-14T02:31:20.371Z,5254.00
2023-05-14T02:32:20.312Z,5231.00
2023-05-14T02:33:20.475Z,5361.00
2023-05-14T02:34:20.427Z,5342.00
2023-05-14T02:35:20.493Z,5241.00
2023-05-14T02:36:20.573Z,5244.00
2023-05-14T02:37:20.624Z,5299.00
2023-05-14T02:38:20.682Z,5377.00
2023-05-14T02:39:20.759Z,5462.00
2023-05-14T02:40:20.850Z,5446.00
2023-05-14T02:41:20.878Z,5385.00
2023-05-14T02:42:20.933Z,5393.00
2023-05-14T02:43:20.992Z,5392.00
2023-05-14T02:44:21.060Z,5435.00
2023-05-14T02:45:21.109Z,5461.00
2023-05-14T02:46:21.260Z,5484.00
2023-05-14T02:47:21.322Z,5516.00
2023-05-14T02:48:21.280Z,5583.00
2023-05-14T02:49:21.316Z,5656.00
2023-05-14T02:50:21.595Z,5716.00
2023-05-14T02:51:21.416Z,5630.00
2023-05-14T02:52:21.490Z,5562.00
2023-05-14T02:53:21.550Z,5553.00
2023-05-14T02:54:21.602Z,5504.00
2023-05-14T02:55:21.656Z,5481.00
2023-05-14T02:56:21.719Z,5481.00
2023-05-14T02:57:21.766Z,5440.00
2023-05-14T02:58:24.639Z,5379.00
2023-05-14T02:59:22.832Z,5365.00
2023-05-14T03:00:22.085Z,5353.00
2023-05-14T03:01:21.929Z,5368.00
2023-05-14T03:02:21.838Z,5345.00
2023-05-14T03:03:21.844Z,5260.00
2023-05-14T03:04:21.828Z,5226.00
2023-05-14T03:05:21.815Z,5235.00
2023-05-14T03:06:21.837Z,5261.00
2023-05-14T03:07:21.878Z,5215.00
2023-05-14T03:08:21.828Z,5229.00
2023-05-14T03:09:21.906Z,5263.00
2023-05-14T03:10:22.254Z,5324.00
2023-05-14T03:11:22.031Z,5339.00
2023-05-14T03:12:22.106Z,5368.00
2023-05-14T03:13:22.168Z,5393.00
2023-05-14T03:14:22.242Z,5405.00
2023-05-14T03:15:22.306Z,5401.00
2023-05-14T03:16:22.449Z,5408.00
2023-05-14T03:17:22.460Z,5386.00
2023-05-14T03:18:22.485Z,5429.00
2023-05-14T03:19:22.551Z,5439.00
2023-05-14T03:20:22.876Z,5464.00
2023-05-14T03:21:22.759Z,5490.00
2023-05-14T03:22:22.750Z,5536.00
2023-05-14T03:23:22.807Z,5560.00
2023-05-14T03:24:22.869Z,5574.00
2023-05-14T03:25:22.939Z,5602.00
2023-05-14T03:26:23.001Z,5623.00
2023-05-14T03:27:23.111Z,5644.00
2023-05-14T03:28:23.139Z,5668.00
2023-05-14T03:29:23.263Z,5640.00
2023-05-14T03:30:23.483Z,5624.00
2023-05-14T03:31:23.356Z,5622.00
2023-05-14T03:32:23.435Z,5680.00
2023-05-14T03:33:23.541Z,5725.00
2023-05-14T03:34:23.545Z,5746.00
2023-05-14T03:35:23.624Z,5754.00
2023-05-14T03:36:23.710Z,5741.00
2023-05-14T03:37:23.761Z,5722.00
2023-05-14T03:38:23.831Z,5705.00
2023-05-14T03:39:23.999Z,5709.00
2023-05-14T03:40:24.110Z,5717.00
2023-05-14T03:41:24.037Z,5739.00
2023-05-14T03:42:24.115Z,5743.00
2023-05-14T03:43:24.166Z,5702.00
2023-05-14T03:44:24.232Z,5654.00
2023-05-14T03:45:24.278Z,5629.00
2023-05-14T03:46:24.326Z,5622.00
2023-05-14T03:47:24.396Z,5628.00
2023-05-14T03:48:24.530Z,5638.00
2023-05-14T03:49:24.518Z,5607.00
2023-05-14T03:50:24.721Z,5575.00
2023-05-14T03:51:24.686Z,5643.00
2023-05-14T03:52:24.741Z,5740.00
2023-05-14T03:53:24.732Z,5717.00
2023-05-14T03:54:24.799Z,5674.00
2023-05-14T03:55:24.866Z,5683.00
2023-05-14T03:56:24.925Z,5736.00
2023-05-14T03:57:24.992Z,5751.00
2023-05-14T03:58:25.088Z,5736.00
2023-05-14T03:59:25.104Z,5678.00
2023-05-14T04:00:25.541Z,5598.00
2023-05-14T04:01:25.225Z,5577.00
2023-05-14T04:02:25.392Z,5581.00
2023-05-14T04:03:25.527Z,5602.00
2023-05-14T04:04:25.481Z,5623.00
2023-05-14T04:05:25.456Z,5642.00
2023-05-14T04:06:25.517Z,5649.00
2023-05-14T04:07:25.579Z,5666.00
2023-05-14T04:08:25.647Z,5654.00
2023-05-14T04:09:25.696Z,5683.00
2023-05-14T04:10:25.962Z,5729.00
2023-05-14T04:11:25.800Z,5765.00
2023-05-14T04:12:25.834Z,5757.00
2023-05-14T04:13:25.912Z,5603.00
2023-05-14T04:14:25.958Z,5478.00
2023-05-14T04:15:26.035Z,5378.00
2023-05-14T04:16:26.099Z,5333.00
2023-05-14T04:17:26.226Z,5272.00
2023-05-14T04:18:26.212Z,5270.00
2023-05-14T04:19:26.234Z,5284.00
2023-05-14T04:20:26.366Z,5278.00
2023-05-14T04:21:26.367Z,5252.00
2023-05-14T04:22:26.424Z,5217.00
2023-05-14T04:23:26.504Z,5176.00
2023-05-14T04:24:26.566Z,5129.00
2023-05-14T04:25:26.650Z,5092.00
2023-05-14T04:26:26.667Z,5012.00
2023-05-14T04:27:26.730Z,4938.00
2023-05-14T04:28:26.799Z,4902.00
2023-05-14T04:29:26.852Z,4907.00
2023-05-14T04:30:26.932Z,4840.00
2023-05-14T04:31:27.092Z,4779.00
2023-05-14T04:32:27.072Z,4771.00
2023-05-14T04:33:27.076Z,4848.00
2023-05-14T04:34:27.142Z,4799.00
2023-05-14T04:35:27.201Z,4759.00
2023-05-14T04:36:27.268Z,4618.00
2023-05-14T04:37:27.425Z,4544.00
2023-05-14T04:38:27.512Z,4573.00
2023-05-14T04:39:27.711Z,4590.00
2023-05-14T04:40:27.900Z,4625.00
2023-05-14T04:41:28.098Z,4610.00
2023-05-14T04:42:28.293Z,4581.00
2023-05-14T04:43:28.388Z,4630.00
2023-05-14T04:44:28.522Z,4690.00
2023-05-14T04:45:28.530Z,4710.00
2023-05-14T04:46:28.696Z,4741.00
2023-05-14T04:47:28.657Z,4757.00
2023-05-14T04:48:28.703Z,4734.00
2023-05-14T04:49:28.768Z,4729.00
2023-05-14T04:50:28.863Z,4760.00
2023-05-14T04:51:28.907Z,4736.00
2023-05-14T04:52:29.039Z,4739.00
2023-05-14T04:53:29.021Z,4748.00
2023-05-14T04:54:29.272Z,4658.00
2023-05-14T04:55:29.420Z,4613.00
2023-05-14T04:56:29.659Z,4647.00
2023-05-14T04:57:29.785Z,4654.00
2023-05-14T04:58:30.788Z,4638.00
2023-05-14T04:59:30.026Z,4629.00
2023-05-14T05:00:30.188Z,4623.00
2023-05-14T05:01:30.188Z,4656.00
2023-05-14T05:02:30.235Z,4664.00
2023-05-14T05:03:30.423Z,4571.00
2023-05-14T05:04:30.352Z,4502.00
2023-05-14T05:05:30.431Z,4480.00
2023-05-14T05:06:30.501Z,4497.00
2023-05-14T05:07:30.580Z,4527.00
2023-05-14T05:08:30.650Z,4616.00
2023-05-14T05:09:30.831Z,4708.00
2023-05-14T05:10:30.922Z,4750.00
2023-05-14T05:11:31.138Z,4882.00
2023-05-14T05:12:31.329Z,4977.00
2023-05-14T05:13:31.458Z,4972.00
2023-05-14T05:14:31.659Z,4947.00
2023-05-14T05:15:31.868Z,5011.00
2023-05-14T05:16:32.096Z,5072.00
2023-05-14T05:17:32.189Z,5117.00
2023-05-14T05:18:32.407Z,5133.00
2023-05-14T05:19:42.536Z,5149.00
2023-05-14T05:20:33.666Z,5149.00
2023-05-14T05:21:32.530Z,5149.00
2023-05-14T05:22:32.554Z,5128.00
2023-05-14T05:23:32.557Z,4995.00
2023-05-14T05:24:32.513Z,4956.00
2023-05-14T05:25:32.522Z,5009.00
2023-05-14T05:26:32.716Z,5074.00
2023-05-14T05:27:32.526Z,5108.00
2023-05-14T05:28:32.529Z,5154.00
2023-05-14T05:29:32.701Z,5250.00
2023-05-14T05:30:32.531Z,5299.00
2023-05-14T05:31:32.636Z,5344.00
2023-05-14T05:32:32.543Z,5348.00
2023-05-14T05:33:32.550Z,5357.00
2023-05-14T05:34:32.648Z,5345.00
2023-05-14T05:35:32.634Z,5368.00
2023-05-14T05:36:32.772Z,5376.00
2023-05-14T05:37:32.702Z,5370.00
2023-05-14T05:38:32.922Z,5344.00
2023-05-14T05:39:32.804Z,5311.00
2023-05-14T05:40:32.850Z,5297.00
2023-05-14T05:41:32.932Z,5308.00
2023-05-14T05:42:33.011Z,5300.00
2023-05-14T05:43:33.123Z,5246.00
2023-05-14T05:44:33.085Z,5256.00
2023-05-14T05:45:33.111Z,5224.00
2023-05-14T05:46:33.378Z,5210.00
2023-05-14T05:47:33.222Z,5221.00
2023-05-14T05:48:33.239Z,5275.00
2023-05-14T05:49:33.259Z,5257.00
2023-05-14T05:50:33.300Z,5234.00
2023-05-14T05:51:33.567Z,5157.00
2023-05-14T05:52:33.389Z,5037.00
2023-05-14T05:53:33.419Z,4886.00
2023-05-14T05:54:33.506Z,4844.00
2023-05-14T05:55:33.568Z,4874.00
2023-05-14T05:56:33.735Z,4810.00
2023-05-14T05:57:34.098Z,4762.00
2023-05-14T05:58:34.090Z,4777.00
2023-05-14T05:59:34.281Z,4830.00
2023-05-14T06:00:34.456Z,4856.00
2023-05-14T06:01:34.633Z,4894.00
2023-05-14T06:02:35.020Z,4899.00
2023-05-14T06:03:34.996Z,4921.00
2023-05-14T06:04:35.167Z,4874.00
2023-05-14T06:05:35.478Z,4855.00
2023-05-14T06:06:35.621Z,4838.00
2023-05-14T06:07:35.804Z,4830.00
2023-05-14T06:08:35.921Z,4782.00
2023-05-14T06:09:36.477Z,4761.00
2023-05-14T06:10:36.124Z,4785.00
2023-05-14T06:11:36.754Z,4867.00
2023-05-14T06:12:36.437Z,4936.00
2023-05-14T06:13:36.240Z,4990.00
2023-05-14T06:14:36.299Z,5029.00
2023-05-14T06:15:36.346Z,5049.00
2023-05-14T06:16:36.456Z,5038.00
2023-05-14T06:17:36.511Z,5016.00
2023-05-14T06:18:36.648Z,5040.00
2023-05-14T06:19:36.762Z,5009.00
2023-05-14T06:20:36.885Z,5025.00
2023-05-14T06:21:37.013Z,5070.00
2023-05-14T06:22:37.240Z,5080.00
2023-05-14T06:23:37.346Z,5045.00
2023-05-14T06:24:37.517Z,5014.00
2023-05-14T06:25:37.690Z,4991.00
2023-05-14T06:26:37.833Z,5034.00
2023-05-14T06:27:38.173Z,5033.00
2023-05-14T06:28:38.179Z,5005.00
2023-05-14T06:29:38.358Z,4913.00
2023-05-14T06:30:38.532Z,4877.00
2023-05-14T06:31:38.733Z,4897.00
2023-05-14T06:32:38.918Z,4916.00
2023-05-14T06:33:39.283Z,4943.00
2023-05-14T06:34:39.438Z,4998.00
2023-05-14T06:35:39.365Z,5077.00
2023-05-14T06:36:39.519Z,5178.00
2023-05-14T06:37:39.696Z,5237.00
2023-05-14T06:38:39.809Z,5237.00
2023-05-14T06:39:40.093Z,5176.00
2023-05-14T06:40:40.344Z,5086.00
2023-05-14T06:41:40.262Z,4982.00
2023-05-14T06:42:40.405Z,4944.00
2023-05-14T06:43:40.546Z,4811.00
2023-05-14T06:44:40.693Z,4724.00
2023-05-14T06:45:40.845Z,4681.00
2023-05-14T06:46:41.076Z,4664.00
2023-05-14T06:47:41.213Z,4659.00
2023-05-14T06:48:41.490Z,4647.00
2023-05-14T06:49:41.421Z,4560.00
2023-05-14T06:50:41.561Z,4454.00
2023-05-14T06:51:41.714Z,4374.00
2023-05-14T06:52:41.866Z,4306.00
2023-05-14T06:53:42.029Z,4218.00
2023-05-14T06:54:42.256Z,4257.00
2023-05-14T06:55:42.426Z,4349.00
2023-05-14T06:56:42.498Z,4422.00
2023-05-14T06:57:42.630Z,4483.00
2023-05-14T06:58:42.799Z,4535.00
2023-05-14T06:59:42.949Z,4551.00
2023-05-14T07:00:43.107Z,4580.00
2023-05-14T07:01:43.530Z,4613.00
2023-05-14T07:02:43.453Z,4704.00
2023-05-14T07:03:43.590Z,4751.00
2023-05-14T07:04:43.806Z,4727.00
2023-05-14T07:05:43.911Z,4645.00
2023-05-14T07:06:44.073Z,4629.00
2023-05-14T07:07:44.276Z,4562.00
2023-05-14T07:08:44.530Z,4413.00
2023-05-14T07:09:44.531Z,4282.00
2023-05-14T07:10:44.682Z,4254.00
2023-05-14T07:11:44.837Z,4225.00
2023-05-14T07:12:45.038Z,4265.00
2023-05-14T07:13:45.141Z,4322.00
2023-05-14T07:14:45.288Z,4320.00
2023-05-14T07:15:45.598Z,4131.00
2023-05-14T07:16:45.646Z,4079.00
2023-05-14T07:17:45.785Z,4080.00
2023-05-14T07:18:45.977Z,4110.00
2023-05-14T07:19:46.104Z,4097.00
2023-05-14T07:20:46.255Z,4200.00
2023-05-14T07:21:46.553Z,4205.00
2023-05-14T07:22:46.641Z,4247.00
2023-05-14T07:23:46.736Z,4315.00
2023-05-14T07:24:46.902Z,4322.00
2023-05-14T07:25:46.984Z,4339.00
2023-05-14T07:26:47.161Z,4306.00
2023-05-14T07:27:47.306Z,4266.00
2023-05-14T07:28:47.455Z,4225.00
2023-05-14T07:29:47.621Z,4241.00
2023-05-14T07:30:47.794Z,4219.00
2023-05-14T07:31:48.049Z,4156.00
2023-05-14T07:32:48.151Z,4009.00
2023-05-14T07:33:48.379Z,3984.00
2023-05-14T07:34:48.364Z,3989.00
2023-05-14T07:35:48.506Z,3887.00
2023-05-14T07:36:48.648Z,3876.00
2023-05-14T07:37:48.776Z,3795.00
2023-05-14T07:38:48.929Z,3485.00
2023-05-14T07:39:49.124Z,3282.00
2023-05-14T07:40:49.201Z,3109.00
2023-05-14T07:41:49.359Z,2989.00
2023-05-14T07:42:49.465Z,2909.00
2023-05-14T07:43:49.686Z,2910.00
2023-05-14T07:44:49.801Z,2915.00
2023-05-14T07:45:50.027Z,2873.00
2023-05-14T07:46:50.172Z,2833.00
2023-05-14T07:47:50.273Z,2753.00
2023-05-14T07:48:50.343Z,2716.00
2023-05-14T07:49:50.557Z,2698.00
2023-05-14T07:50:50.710Z,2717.00
2023-05-14T07:51:50.748Z,2788.00
2023-05-14T07:52:50.848Z,2884.00
2023-05-14T07:53:51.053Z,2840.00
2023-05-14T07:54:51.110Z,2840.00
2023-05-14T07:55:51.263Z,2807.00
2023-05-14T07:56:51.404Z,2583.00
2023-05-14T07:57:51.567Z,2488.00
2023-05-14T07:58:51.844Z,2518.00
2023-05-14T07:59:51.838Z,2595.00
2023-05-14T08:00:51.982Z,2479.00
2023-05-14T08:01:52.149Z,2371.00
2023-05-14T08:02:52.666Z,2354.00
2023-05-14T08:03:52.507Z,2375.00
2023-05-14T08:04:52.413Z,2436.00
2023-05-14T08:05:52.485Z,2568.00
2023-05-14T08:06:52.586Z,2515.00
2023-05-14T08:07:52.399Z,2375.00
2023-05-14T08:08:52.448Z,2123.00
2023-05-14T08:09:52.549Z,2071.00
2023-05-14T08:10:52.849Z,1968.00
2023-05-14T08:11:52.565Z,1882.00
2023-05-14T08:12:52.503Z,1896.00
2023-05-14T08:13:52.497Z,1740.00
2023-05-14T08:14:52.480Z,1525.00
2023-05-14T08:15:52.457Z,1438.00
2023-05-14T08:16:52.538Z,1310.00
2023-05-14T08:17:52.515Z,1044.00
2023-05-14T08:18:52.463Z,840.00
2023-05-14T08:19:52.560Z,920.00
2023-05-14T08:20:52.540Z,1100.00
2023-05-14T08:21:52.807Z,1053.00
2023-05-14T08:22:52.509Z,909.00
2023-05-14T08:23:52.550Z,722.00
2023-05-14T08:24:52.504Z,666.00
2023-05-14T08:25:52.477Z,656.00
2023-05-14T08:26:52.629Z,669.00
2023-05-14T08:27:52.616Z,713.00
2023-05-14T08:28:52.544Z,644.00
2023-05-14T08:29:52.558Z,634.00
2023-05-14T08:30:52.575Z,631.00
2023-05-14T08:31:52.592Z,668.00
2023-05-14T08:32:52.728Z,582.00
2023-05-14T08:33:52.564Z,408.00
2023-05-14T08:34:52.732Z,400.00
2023-05-14T08:35:52.663Z,400.00
2023-05-14T08:36:52.662Z,400.00
2023-05-14T08:37:52.725Z,400.00
2023-05-14T08:38:52.778Z,409.00
2023-05-14T08:39:52.756Z,495.00
2023-05-14T08:40:52.800Z,554.00
2023-05-14T08:41:52.868Z,558.00
2023-05-14T08:42:52.894Z,506.00
2023-05-14T08:43:53.386Z,513.00
2023-05-14T08:44:52.939Z,496.00
2023-05-14T08:45:52.944Z,491.00
2023-05-14T08:46:52.959Z,501.00
2023-05-14T08:47:53.085Z,515.00
2023-05-14T08:48:53.051Z,598.00
2023-05-14T08:49:53.056Z,592.00
2023-05-14T08:50:53.047Z,571.00
2023-05-14T08:51:53.008Z,631.00
2023-05-14T08:52:53.050Z,652.00
2023-05-14T08:53:52.978Z,664.00
2023-05-14T08:54:52.964Z,661.00
2023-05-14T08:55:53.000Z,850.00
2023-05-14T08:56:52.910Z,1103.00
2023-05-14T08:57:52.953Z,1235.00
2023-05-14T08:58:52.850Z,1153.00
2023-05-14T08:59:52.886Z,1080.00
2023-05-14T09:00:52.787Z,956.00
2023-05-14T09:01:52.783Z,750.00
2023-05-14T09:02:52.855Z,600.00
2023-05-14T09:03:52.895Z,550.00
2023-05-14T09:04:52.677Z,661.00
2023-05-14T09:05:52.635Z,1024.00
2023-05-14T09:06:52.588Z,1206.00
2023-05-14T09:07:52.595Z,1251.00
2023-05-14T09:08:52.510Z,1307.00
2023-05-14T09:09:52.558Z,1352.00
2023-05-14T09:10:52.467Z,1339.00
2023-05-14T09:11:52.444Z,1465.00
2023-05-14T09:12:52.387Z,1553.00
2023-05-14T09:13:52.327Z,1638.00
2023-05-14T09:14:52.279Z,1699.00
2023-05-14T09:15:52.295Z,1798.00
2023-05-14T09:16:52.460Z,1916.00
2023-05-14T09:17:52.278Z,2018.00
2023-05-14T09:18:52.239Z,2164.00
2023-05-14T09:19:52.133Z,2227.00
2023-05-14T09:20:52.078Z,2234.00
2023-05-14T09:21:51.987Z,2286.00
2023-05-14T09:22:51.962Z,2330.00
2023-05-14T09:23:51.881Z,2318.00
2023-05-14T09:24:51.893Z,2359.00
2023-05-14T09:25:51.812Z,2411.00
2023-05-14T09:26:51.755Z,2424.00
2023-05-14T09:27:51.811Z,1973.00
2023-05-14T09:28:51.749Z,1796.00
2023-05-14T09:29:51.651Z,1699.00
2023-05-14T09:30:51.662Z,1725.00
2023-05-14T09:31:51.764Z,1903.00
2023-05-14T09:32:51.540Z,2190.00
2023-05-14T09:33:51.640Z,2381.00
2023-05-14T09:34:51.438Z,2411.00
2023-05-14T09:35:51.397Z,2394.00
2023-05-14T09:36:51.328Z,2091.00
2023-05-14T09:37:51.350Z,1945.00
2023-05-14T09:38:51.329Z,2004.00
2023-05-14T09:39:51.364Z,2096.00
2023-05-14T09:40:51.299Z,2027.00
2023-05-14T09:41:51.268Z,1998.00
2023-05-14T09:42:51.233Z,2109.00
2023-05-14T09:43:51.220Z,2205.00
2023-05-14T09:44:51.307Z,2240.00
2023-05-14T09:45:51.244Z,2235.00
2023-05-14T09:46:51.246Z,2125.00
2023-05-14T09:47:51.254Z,2033.00
2023-05-14T09:48:51.217Z,2078.00
2023-05-14T09:49:51.129Z,2226.00
2023-05-14T09:50:51.124Z,2214.00
2023-05-14T09:51:51.121Z,2120.00
2023-05-14T09:52:51.006Z,1965.00
2023-05-14T09:53:51.065Z,1813.00
2023-05-14T09:54:50.940Z,1700.00
2023-05-14T09:55:50.986Z,1587.00
2023-05-14T09:56:50.933Z,1501.00
2023-05-14T09:57:51.064Z,1565.00
2023-05-14T09:58:50.956Z,1789.00
2023-05-14T09:59:50.919Z,1740.00
2023-05-14T10:00:50.960Z,1537.00
2023-05-14T10:01:50.902Z,1243.00
2023-05-14T10:02:50.925Z,1039.00
2023-05-14T10:03:50.943Z,938.00
2023-05-14T10:04:50.968Z,841.00
2023-05-14T10:05:50.866Z,1061.00
2023-05-14T10:06:50.834Z,1401.00
2023-05-14T10:07:50.858Z,1450.00
2023-05-14T10:08:50.882Z,1445.00
2023-05-14T10:09:50.942Z,1064.00
2023-05-14T10:10:50.828Z,631.00
2023-05-14T10:11:50.847Z,535.00
2023-05-14T10:12:50.840Z,473.00
2023-05-14T10:13:50.825Z,502.00
2023-05-14T10:14:50.827Z,500.00
2023-05-14T10:15:50.805Z,553.00
2023-05-14T10:16:50.867Z,591.00
2023-05-14T10:17:50.822Z,619.00
2023-05-14T10:18:50.828Z,583.00
2023-05-14T10:19:50.795Z,576.00
2023-05-14T10:20:50.807Z,577.00
2023-05-14T10:21:50.747Z,535.00
2023-05-14T10:22:50.924Z,522.00
2023-05-14T10:23:50.837Z,625.00
2023-05-14T10:24:50.961Z,646.00
2023-05-14T10:25:51.066Z,622.00
2023-05-14T10:26:51.179Z,618.00
2023-05-14T10:27:51.309Z,548.00
2023-05-14T10:28:51.416Z,519.00
2023-05-14T10:29:51.529Z,539.00
2023-05-14T10:30:51.657Z,595.00
2023-05-14T10:31:51.754Z,571.00
2023-05-14T10:32:51.901Z,572.00
2023-05-14T10:33:52.018Z,400.00
2023-05-14T10:34:52.266Z,508.00
2023-05-14T10:35:52.258Z,546.00
2023-05-14T10:36:52.395Z,473.00
2023-05-14T10:37:52.514Z,467.00
2023-05-14T10:38:52.676Z,500.00
2023-05-14T10:39:52.729Z,576.00
2023-05-14T10:40:54.170Z,637.00
2023-05-14T10:41:52.839Z,602.00
2023-05-14T10:42:52.783Z,510.00
2023-05-14T10:43:52.727Z,527.00
2023-05-14T10:44:52.696Z,539.00
2023-05-14T10:45:52.736Z,539.00
2023-05-14T10:46:52.807Z,512.00
2023-05-14T10:47:52.819Z,465.00
2023-05-14T10:48:52.674Z,441.00
2023-05-14T10:49:52.680Z,476.00
2023-05-14T10:50:52.725Z,542.00
2023-05-14T10:51:52.646Z,606.00
2023-05-14T10:52:52.704Z,613.00
2023-05-14T10:53:52.741Z,488.00
2023-05-14T10:54:52.757Z,502.00
2023-05-14T10:55:52.631Z,501.00
2023-05-14T10:56:52.614Z,498.00
2023-05-14T10:57:52.547Z,500.00
2023-05-14T10:58:52.570Z,524.00
2023-05-14T10:59:52.513Z,500.00
2023-05-14T11:00:52.523Z,476.00
2023-05-14T11:01:52.473Z,501.00
2023-05-14T11:02:52.465Z,498.00
2023-05-14T11:03:52.493Z,512.00
2023-05-14T11:04:52.414Z,498.00
2023-05-14T11:05:52.385Z,524.00
2023-05-14T11:06:52.397Z,497.00
2023-05-14T11:07:52.387Z,507.00
2023-05-14T11:08:52.387Z,500.00
2023-05-14T11:09:52.399Z,540.00
2023-05-14T11:10:52.429Z,529.00
2023-05-14T11:11:52.423Z,498.00
2023-05-14T11:12:52.411Z,502.00
2023-05-14T11:13:52.409Z,535.00
2023-05-14T11:14:52.824Z,513.00
2023-05-14T11:15:52.415Z,525.00
2023-05-14T11:16:52.400Z,506.00
2023-05-14T11:17:52.356Z,500.00
2023-05-14T11:18:52.285Z,500.00
2023-05-14T11:19:52.334Z,489.00
2023-05-14T11:20:52.600Z,491.00
2023-05-14T11:21:52.622Z,526.00
2023-05-14T11:22:52.715Z,577.00
2023-05-14T11:23:52.777Z,668.00
2023-05-14T11:24:52.848Z,724.00
2023-05-14T11:25:53.028Z,698.00
2023-05-14T11:26:53.096Z,773.00
2023-05-14T11:27:53.243Z,629.00
2023-05-14T11:28:53.302Z,565.00
2023-05-14T11:29:53.503Z,565.00
2023-05-14T11:30:53.728Z,619.00
2023-05-14T11:31:53.878Z,630.00
2023-05-14T11:32:53.895Z,988.00
2023-05-14T11:33:54.026Z,1253.00
2023-05-14T11:34:54.186Z,1084.00
2023-05-14T11:35:54.191Z,776.00
2023-05-14T11:36:54.353Z,904.00
2023-05-14T11:37:54.481Z,801.00
2023-05-14T11:38:54.610Z,767.00
2023-05-14T11:39:54.719Z,965.00
2023-05-14T11:40:54.781Z,669.00
2023-05-14T11:41:54.895Z,585.00
2023-05-14T11:42:55.109Z,629.00
2023-05-14T11:43:55.089Z,694.00
2023-05-14T11:44:55.260Z,971.00
2023-05-14T11:45:55.515Z,979.00
2023-05-14T11:46:55.462Z,1077.00
2023-05-14T11:47:55.626Z,1301.00
2023-05-14T11:48:55.623Z,1356.00
2023-05-14T11:49:55.784Z,1542.00
2023-05-14T11:50:55.897Z,1605.00
2023-05-14T11:51:55.981Z,1708.00
2023-05-14T11:52:56.096Z,1756.00
2023-05-14T11:53:56.208Z,1578.00
2023-05-14T11:54:56.294Z,1620.00
2023-05-14T11:55:56.505Z,1697.00
2023-05-14T11:56:56.546Z,1765.00
2023-05-14T11:57:56.619Z,1842.00
2023-05-14T11:58:56.723Z,1646.00
2023-05-14T11:59:56.824Z,1715.00
2023-05-14T12:00:56.903Z,1784.00
2023-05-14T12:01:57.024Z,1993.00
2023-05-14T12:02:57.231Z,2109.00
2023-05-14T12:03:57.292Z,2067.00
2023-05-14T12:04:57.331Z,2083.00
2023-05-14T12:05:57.341Z,2037.00
2023-05-14T12:06:57.469Z,2125.00
2023-05-14T12:07:57.606Z,2229.00
2023-05-14T12:08:57.572Z,2206.00
2023-05-14T12:09:57.522Z,2150.00
2023-05-14T12:10:57.452Z,2093.00